Terminal Aerodrome Forecast
Issued by NWS

Home | Current Version | Previous Version | Text Only | Print | Product List | Glossary On
Versions: 1 2 3 4 5 6 7 8 9 10 11 12 13 14 15 16 17 18 19 20 21 22 23
000
FTUS44 KTSA 020900 AAE
TAFBVO
TAF AMD
KBVO 020910Z 0209/0306 17006KT P6SM VCTS BKN050CB BKN250
      TEMPO 0209/0212 1SM TSRA BKN025CB
     FM021500 21008KT P6SM OVC025
      TEMPO 0215/0218 3SM TSRA BKN050CB
     FM021800 26009KT P6SM VCSH BKN050
      TEMPO 0218/0222 2SM +TSRA BKN030CB
     FM030000 33009KT P6SM OVC100=

USA.gov is the U.S. government's official web portal to all federal, state and local government web resources and services.